Weather History for North Padre Island, TX

Change the Weather History Date:

Thursday, December 5, 2013

  Actual Average Record
Temperature  
Mean Temperature 67 °F -  
Max Temperature 75 °F - - ()
Min Temperature 59 °F - - ()
Cooling Degree Days 2    
Growing Degree Days 17 (Base 50)    
Moisture  
Dew Point 69 °F    
Average Humidity 98    
Maximum Humidity 100    
Minimum Humidity 88    
Precipitation  
Precipitation 0.00 in - - ()
Sea Level Pressure  
Sea Level Pressure 29.84 in    
Wind  
Wind Speed 12 mph (SE)    
Max Wind Speed 15 mph    
Max Gust Speed 25 mph    
Visibility 2 miles    
Events Fog    
T = Trace of Precipitation, MM = Missing Value Source: NWS Daily Summary

Daily Weather History Graph

Daily Weather History Graph

Search for Another Location

Airport:

Trip Planner

Search our weather history database for the weather conditions in past years. The results will help you decide how hot, cold, wet, or windy it might be!

Date:

Astronomy

Dec. 05, 2013 Rise Set
Actual Time 7:02 AM CST 5:34 PM CST
Civil Twilight 6:37 AM CST 5:59 PM CST
Nautical Twilight 6:08 AM CST 6:28 PM CST
Astronomical Twilight 5:40 AM CST 6:56 PM CST
Moon 9:30 AM CST (12/5) 8:47 PM CST (12/5)
Length of Visible Light 11h 22m
Length of Day
10h 31m
Waxing Crescent, 11% of the Moon is Illuminated
Dec 5
Waxing Crescent
Dec 9
First Quarter
Dec 17
Full
Dec 25
Last Quarter
Jan 1
New

Hourly Weather History & Observations

Time (CST) Temp. Dew Point Humidity Pressure Visibility Wind Dir Wind Speed Gust Speed Precip Events Conditions
12:15 AM 71.6 °F 71.6 °F 100% 29.81 in 0.2 mi SSE 15.0 mph - N/A Fog Fog
12:35 AM 71.6 °F 71.6 °F 100% 29.81 in 0.8 mi SSE 13.8 mph - N/A   Overcast
12:55 AM 71.6 °F 71.6 °F 100% 29.81 in 2.0 mi SSE 13.8 mph - N/A   Partly Cloudy
1:15 AM 71.6 °F 71.6 °F 100% 29.81 in 2.0 mi SSE 13.8 mph - N/A   Clear
1:35 AM 71.6 °F 71.6 °F 100% 29.81 in 2.0 mi SSE 12.7 mph - N/A   Mostly Cloudy
1:55 AM 71.6 °F 71.6 °F 100% 29.80 in 1.8 mi SSE 12.7 mph - N/A   Overcast
2:15 AM 71.6 °F 71.6 °F 100% 29.80 in 1.2 mi SSE 15.0 mph - N/A   Overcast
2:35 AM 71.6 °F 71.6 °F 100% 29.80 in 0.2 mi South 15.0 mph - N/A Fog Fog
2:55 AM 71.6 °F 71.6 °F 100% 29.80 in 0.2 mi South 11.5 mph - N/A Fog Fog
3:15 AM 71.6 °F 71.6 °F 100% 29.79 in 0.2 mi SSE 13.8 mph - N/A Fog Fog
3:35 AM 71.6 °F 71.6 °F 100% 29.79 in 0.2 mi South 13.8 mph - N/A Fog Fog
3:55 AM 71.6 °F 71.6 °F 100% 29.79 in 0.2 mi South 12.7 mph - N/A Fog Fog
4:15 AM 69.8 °F 69.8 °F 100% 29.80 in 0.2 mi South 13.8 mph - N/A Fog Fog
4:35 AM 69.8 °F 69.8 °F 100% 29.80 in 0.2 mi South 12.7 mph - N/A Fog Fog
4:55 AM 69.8 °F 69.8 °F 100% 29.80 in 0.2 mi South 11.5 mph - N/A Fog Fog
5:15 AM 69.8 °F 69.8 °F 100% 29.80 in 0.2 mi South 12.7 mph - N/A Fog Fog
5:35 AM 69.8 °F 69.8 °F 100% 29.81 in 0.2 mi South 11.5 mph - N/A Fog Fog
5:55 AM 69.8 °F 69.8 °F 100% 29.81 in 0.2 mi South 12.7 mph - N/A Fog Fog
6:15 AM 69.8 °F 69.8 °F 100% 29.82 in 0.2 mi South 12.7 mph - N/A Fog Fog
6:35 AM 69.8 °F 69.8 °F 100% 29.82 in - South 12.7 mph - N/A   Overcast
6:55 AM 69.8 °F 69.8 °F 100% 29.82 in 0.2 mi SSW 12.7 mph - N/A Fog Fog
7:15 AM 69.8 °F 69.8 °F 100% 29.83 in 0.2 mi South 12.7 mph - N/A Fog Fog
7:35 AM 69.8 °F 69.8 °F 100% 29.84 in 0.2 mi South 11.5 mph - N/A Fog Fog
7:55 AM 69.8 °F 69.8 °F 100% 29.84 in 0.2 mi South 12.7 mph - N/A Fog Fog
8:15 AM 69.8 °F 69.8 °F 100% 29.85 in 0.2 mi South 12.7 mph - N/A Fog Fog
8:35 AM 69.8 °F 69.8 °F 100% 29.86 in 0.2 mi South 12.7 mph - N/A Fog Fog
8:55 AM 69.8 °F 69.8 °F 100% 29.86 in 0.2 mi South 12.7 mph - N/A Fog Fog
9:15 AM 69.8 °F 69.8 °F 100% 29.86 in 0.2 mi South 12.7 mph - N/A Fog Fog
9:35 AM 69.8 °F 69.8 °F 100% 29.87 in 0.2 mi South 12.7 mph - N/A Fog Fog
9:55 AM 69.8 °F 69.8 °F 100% 29.87 in 0.2 mi South 12.7 mph - N/A Fog Fog
10:15 AM 69.8 °F 69.8 °F 100% 29.87 in 0.2 mi South 12.7 mph - N/A Fog Fog
10:35 AM 69.8 °F 69.8 °F 100% 29.86 in 0.2 mi SSE 12.7 mph - N/A Fog Fog
10:55 AM 69.8 °F 69.8 °F 100% 29.86 in 0.2 mi SSE 13.8 mph - N/A Fog Fog
11:15 AM 69.8 °F 69.8 °F 100% 29.86 in 1.0 mi South 12.7 mph - N/A   Mostly Cloudy
11:35 AM 69.8 °F 69.8 °F 100% 29.86 in 2.5 mi South 12.7 mph - N/A   Overcast
11:55 AM 69.8 °F 69.8 °F 100% 29.85 in 2.0 mi South 11.5 mph - N/A   Overcast
12:15 PM 71.6 °F 71.6 °F 100% 29.84 in 3.0 mi South 11.5 mph - N/A   Overcast
12:35 PM 69.8 °F 69.8 °F 100% 29.84 in 2.5 mi SSE 10.4 mph - N/A   Mostly Cloudy
12:55 PM 69.8 °F 69.8 °F 100% 29.83 in 2.5 mi South 10.4 mph - N/A   Mostly Cloudy
1:15 PM 69.8 °F 69.8 °F 100% 29.81 in 2.5 mi South 11.5 mph - N/A   Overcast
1:35 PM 71.6 °F 71.6 °F 100% 29.81 in 3.0 mi South 11.5 mph - N/A   Overcast
1:55 PM 71.6 °F 71.6 °F 100% 29.82 in 3.0 mi SE 3.5 mph - N/A   Overcast
2:15 PM 71.6 °F 69.8 °F 94% 29.81 in 4.0 mi SE 5.8 mph - N/A   Mostly Cloudy
2:35 PM 71.6 °F 69.8 °F 94% 29.79 in 3.0 mi SE 9.2 mph - N/A   Mostly Cloudy
2:55 PM 71.6 °F 69.8 °F 94% 29.79 in 4.0 mi East 5.8 mph - N/A   Overcast
3:15 PM 71.6 °F 69.8 °F 94% 29.79 in 3.0 mi ENE 5.8 mph - N/A   Mostly Cloudy
3:35 PM 71.6 °F 69.8 °F 94% 29.79 in 4.0 mi Calm Calm - N/A   Mostly Cloudy
3:55 PM 73.4 °F 69.8 °F 88% 29.79 in 4.0 mi NE 5.8 mph - N/A   Overcast
4:15 PM 73.4 °F 69.8 °F 88% 29.79 in 4.0 mi ENE 8.1 mph - N/A   Mostly Cloudy
4:35 PM 73.4 °F 69.8 °F 88% 29.80 in 4.0 mi ENE 9.2 mph - N/A   Overcast
4:55 PM 73.4 °F 71.6 °F 94% 29.82 in 4.0 mi NE 8.1 mph - N/A   Overcast
5:15 PM 73.4 °F 71.6 °F 94% 29.82 in 4.0 mi NNE 5.8 mph - N/A   Mostly Cloudy
5:35 PM 73.4 °F 71.6 °F 94% 29.83 in 5.0 mi NNE 3.5 mph - N/A   Mostly Cloudy
5:55 PM 75.2 °F 71.6 °F 89% 29.84 in 6.0 mi North 4.6 mph - N/A   Overcast
6:15 PM 69.8 °F 68.0 °F 94% 29.84 in 3.0 mi North 9.2 mph - N/A   Overcast
6:35 PM 68.0 °F 66.2 °F 94% 29.85 in 3.0 mi North 10.4 mph - N/A   Overcast
6:55 PM 68.0 °F 66.2 °F 94% 29.86 in 3.0 mi North 11.5 mph - N/A   Overcast
7:15 PM 66.2 °F 64.4 °F 94% 29.87 in 3.0 mi North 11.5 mph 17.3 mph N/A   Overcast
7:35 PM 64.4 °F 62.6 °F 94% 29.87 in 3.0 mi North 12.7 mph - N/A   Overcast
7:55 PM 64.4 °F 62.6 °F 94% 29.87 in 3.0 mi North 15.0 mph - N/A   Overcast
8:15 PM 64.4 °F 62.6 °F 94% 29.88 in 3.0 mi North 11.5 mph 21.9 mph N/A   Overcast
8:35 PM 64.4 °F 62.6 °F 94% 29.88 in 3.0 mi NNE 12.7 mph 20.7 mph N/A   Overcast
8:55 PM 64.4 °F 64.4 °F 100% 29.88 in 2.5 mi NNE 9.2 mph 16.1 mph N/A   Overcast
9:15 PM 64.4 °F 64.4 °F 100% 29.89 in 2.5 mi North 12.7 mph 18.4 mph N/A   Overcast
9:35 PM 64.4 °F 64.4 °F 100% 29.90 in 2.0 mi North 15.0 mph - N/A   Overcast
9:55 PM 62.6 °F 62.6 °F 100% 29.91 in 2.0 mi North 13.8 mph 25.3 mph N/A   Overcast
10:15 PM 62.6 °F 60.8 °F 94% 29.92 in 2.0 mi North 11.5 mph 19.6 mph N/A   Overcast
10:35 PM 60.8 °F 60.8 °F 100% 29.92 in 2.5 mi North 10.4 mph 19.6 mph N/A   Overcast
10:55 PM 60.8 °F 60.8 °F 100% 29.92 in 3.0 mi North 11.5 mph 20.7 mph N/A   Overcast
11:15 PM 60.8 °F 59.0 °F 94% 29.92 in 1.8 mi North 12.7 mph 20.7 mph N/A   Overcast
11:35 PM 59.0 °F 59.0 °F 100% 29.92 in 2.0 mi North 13.8 mph 21.9 mph N/A   Overcast
11:55 PM 59.0 °F 59.0 °F 100% 29.92 in 3.0 mi North 12.7 mph 25.3 mph N/A   Overcast